Weather History for KMOX - January, 2013

Change the Weather History Date:

Thursday, January 24, 2013

  Actual Average Record
Temperature  
Mean Temperature 0 °F -  
Max Temperature 12 °F 17 °F 39 °F (2006)
Min Temperature -11 °F 2 °F -18 °F (2008)
Degree Days  
Heating Degree Days 64    
Moisture  
Dew Point -7 °F    
Average Humidity 71    
Maximum Humidity 79    
Minimum Humidity 65    
Precipitation  
Precipitation 0.00 in - - ()
Sea Level Pressure  
Sea Level Pressure 30.36 in    
Wind  
Wind Speed 12 mph (SE)    
Max Wind Speed 26 mph    
Max Gust Speed 32 mph    
Visibility 10 miles    
Events      
Averages and records for this station are not official NWS values.
T = Trace of Precipitation, MM = Missing Value Source: NWS Daily Summary

Daily Weather History Graph

Daily Weather History Graph

Search for Another Location

Airport or City:

Trip Planner

Search our weather history database for the weather conditions in past years. The results will help you decide how hot, cold, wet, or windy it might be!

Date:

Astronomy

Jan. 24, 2013 Rise Set
Actual Time 7:53 AM CST 5:19 PM CST
Civil Twilight 7:20 AM CST 5:51 PM CST
Nautical Twilight 6:44 AM CST 6:27 PM CST
Astronomical Twilight 6:09 AM CST 7:02 PM CST
Moon 3:20 PM CST 5:53 AM CST
Length of Visible Light 10h 30m
Length of Day
9h 26m
Waxing Gibbous, 94% of the Moon is Illuminated
Jan 24
Waxing Gibbous
Jan 26
Full
Feb 3
Last Quarter
Feb 10
New
Feb 17
First Quarter

Hourly Weather History & Observations

Time (CST) Temp. Windchill Dew Point Humidity Pressure Visibility Wind Dir Wind Speed Gust Speed Precip Events Conditions
12:10 AM -11.2 °F -26.4 °F -18.4 °F 70% 30.60 in 10.0 mi North 6.9 mph - N/A   Clear
12:30 AM -11.2 °F -23.0 °F -18.4 °F 70% 30.59 in 10.0 mi North 4.6 mph - N/A   Clear
12:50 AM -11.2 °F -20.6 °F -18.4 °F 70% 30.59 in 10.0 mi North 3.5 mph - N/A   Clear
1:10 AM -11.2 °F -20.6 °F -18.4 °F 70% 30.59 in 10.0 mi North 3.5 mph - N/A   Clear
1:30 AM -11.2 °F -23.0 °F -18.4 °F 70% 30.59 in 10.0 mi North 4.6 mph - N/A   Clear
1:50 AM -11.2 °F -20.6 °F -18.4 °F 70% 30.60 in 10.0 mi North 3.5 mph - N/A   Clear
2:10 AM -11.2 °F -20.6 °F -16.6 °F 77% 30.60 in 10.0 mi North 3.5 mph - N/A   Clear
2:30 AM -11.2 °F - -16.6 °F 77% 30.61 in 10.0 mi Calm Calm - N/A   Clear
2:50 AM -9.4 °F - -16.6 °F 71% 30.61 in 10.0 mi Calm Calm - N/A   Clear
3:10 AM -9.4 °F - -16.6 °F 71% 30.61 in 10.0 mi Calm Calm - N/A   Clear
3:30 AM -9.4 °F -18.6 °F -18.4 °F 65% 30.60 in 10.0 mi East 3.5 mph - N/A   Clear
3:50 AM -9.4 °F -24.3 °F -16.6 °F 71% 30.57 in 10.0 mi East 6.9 mph - N/A   Clear
4:10 AM -7.6 °F -22.1 °F -16.6 °F 65% 30.57 in 10.0 mi ESE 6.9 mph - N/A   Clear
4:30 AM -7.6 °F -22.1 °F -16.6 °F 65% 30.57 in 10.0 mi ESE 6.9 mph - N/A   Clear
4:50 AM -7.6 °F -24.6 °F -16.6 °F 65% 30.57 in 10.0 mi ESE 9.2 mph - N/A   Clear
5:10 AM -7.6 °F -27.5 °F -16.6 °F 65% 30.55 in 10.0 mi ESE 12.7 mph - N/A   Clear
5:30 AM -7.6 °F -24.6 °F -16.6 °F 65% 30.55 in 10.0 mi SE 9.2 mph - N/A   Clear
5:50 AM -7.6 °F -24.6 °F -16.6 °F 65% 30.58 in 10.0 mi SE 9.2 mph - N/A   Mostly Cloudy
6:10 AM -7.6 °F -25.7 °F -16.6 °F 65% 30.57 in 10.0 mi SE 10.4 mph - N/A   Overcast
6:30 AM -7.6 °F -24.6 °F -14.8 °F 71% 30.58 in 10.0 mi SE 9.2 mph - N/A   Overcast
6:50 AM -7.6 °F -25.7 °F -14.8 °F 71% 30.59 in 10.0 mi SE 10.4 mph - N/A   Overcast
7:10 AM -7.6 °F -25.7 °F -14.8 °F 71% 30.57 in 10.0 mi SE 10.4 mph - N/A   Scattered Clouds
7:30 AM -5.8 °F -24.4 °F -14.8 °F 65% 30.55 in 10.0 mi SSE 11.5 mph - N/A   Clear
7:50 AM -5.8 °F -26.0 °F -14.8 °F 65% 30.51 in 10.0 mi SE 13.8 mph - N/A   Clear
8:10 AM -5.8 °F -27.5 °F -14.8 °F 65% 30.49 in 10.0 mi SE 16.1 mph - N/A   Clear
8:30 AM -5.8 °F -26.8 °F -13.0 °F 71% 30.50 in 10.0 mi SE 15.0 mph - N/A   Clear
8:50 AM -5.8 °F -28.8 °F -14.8 °F 65% 30.48 in 10.0 mi SE 18.4 mph - N/A   Clear
9:10 AM -5.8 °F -29.4 °F -13.0 °F 71% 30.49 in 10.0 mi SE 19.6 mph - N/A   Clear
9:30 AM -5.8 °F -29.4 °F -13.0 °F 71% 30.47 in 10.0 mi SE 19.6 mph - N/A   Clear
9:50 AM -4.0 °F -27.0 °F -11.2 °F 71% 30.47 in 10.0 mi SE 19.6 mph - N/A   Clear
10:10 AM -4.0 °F -26.4 °F -11.2 °F 71% 30.47 in 10.0 mi SSE 18.4 mph - N/A   Clear
10:30 AM -2.2 °F -24.7 °F -11.2 °F 66% 30.47 in 10.0 mi SSE 19.6 mph - N/A   Clear
10:50 AM -2.2 °F -24.1 °F -9.4 °F 71% 30.47 in 10.0 mi SE 18.4 mph - N/A   Clear
11:10 AM -2.2 °F -25.2 °F -9.4 °F 71% 30.46 in 10.0 mi SE 20.7 mph - N/A   Clear
11:30 AM -2.2 °F -24.7 °F -9.4 °F 71% 30.44 in 10.0 mi SSE 19.6 mph - N/A   Clear
11:50 AM -0.4 °F -22.3 °F -7.6 °F 72% 30.42 in 10.0 mi SE 19.6 mph - N/A   Clear
12:10 PM -0.4 °F -23.3 °F -7.6 °F 72% 30.39 in 10.0 mi SE 21.9 mph - N/A   Clear
12:30 PM -0.4 °F -21.7 °F -7.6 °F 72% 30.39 in 10.0 mi SE 18.4 mph - N/A   Clear
12:50 PM -0.4 °F -22.8 °F -7.6 °F 72% 30.38 in 10.0 mi SE 20.7 mph - N/A   Clear
1:10 PM 1.4 °F -21.0 °F -7.6 °F 66% 30.36 in 10.0 mi SE 21.9 mph - N/A   Clear
1:30 PM 1.4 °F -21.4 °F -5.8 °F 72% 30.34 in 10.0 mi SE 23.0 mph - N/A   Clear
1:50 PM 1.4 °F -21.4 °F -5.8 °F 72% 30.31 in 10.0 mi SE 23.0 mph - N/A   Clear
2:10 PM 3.2 °F -19.9 °F -5.8 °F 66% 30.29 in 10.0 mi SE 25.3 mph - N/A   Clear
2:30 PM 3.2 °F -20.3 °F -4.0 °F 72% 30.28 in 10.0 mi SSE 26.5 mph - N/A   Clear
2:50 PM 3.2 °F -19.9 °F -4.0 °F 72% 30.27 in 10.0 mi SE 25.3 mph - N/A   Clear
3:10 PM 3.2 °F -19.9 °F -2.2 °F 78% 30.25 in 10.0 mi SE 25.3 mph - N/A   Clear
3:30 PM 3.2 °F -19.9 °F -2.2 °F 78% 30.24 in 10.0 mi SE 25.3 mph - N/A   Clear
3:50 PM 5.0 °F -16.7 °F -2.2 °F 72% 30.22 in 10.0 mi SE 23.0 mph - N/A   Clear
4:10 PM 5.0 °F -16.7 °F -2.2 °F 72% 30.22 in 10.0 mi SE 23.0 mph 26.5 mph N/A   Mostly Cloudy
4:30 PM 6.8 °F -14.3 °F -2.2 °F 67% 30.22 in 10.0 mi SE 23.0 mph 28.8 mph N/A   Overcast
4:50 PM 6.8 °F - -0.4 °F 72% 30.20 in 10.0 mi North - - N/A   Overcast
5:10 PM 6.8 °F -14.3 °F -0.4 °F 72% 30.16 in 10.0 mi SE 23.0 mph 31.1 mph N/A   Mostly Cloudy
5:30 PM 6.8 °F -15.1 °F -0.4 °F 72% 30.14 in 10.0 mi SE 25.3 mph 32.2 mph N/A   Mostly Cloudy
5:50 PM 6.8 °F -14.7 °F 1.4 °F 79% 30.13 in 10.0 mi SSE 24.2 mph - N/A   Overcast
6:10 PM 8.6 °F -11.0 °F 1.4 °F 73% 30.14 in 10.0 mi SSE 20.7 mph - N/A   Overcast
6:30 PM 8.6 °F -9.5 °F 1.4 °F 73% 30.15 in 10.0 mi SSE 17.3 mph - N/A   Scattered Clouds
6:50 PM 8.6 °F -10.5 °F 1.4 °F 73% 30.13 in 10.0 mi SSE 19.6 mph - N/A   Scattered Clouds
7:10 PM 10.4 °F -8.2 °F 1.4 °F 67% 30.11 in 10.0 mi SSE 19.6 mph - N/A   Scattered Clouds
7:30 PM 10.4 °F -9.5 °F 1.4 °F 67% 30.08 in 10.0 mi SSE 23.0 mph - N/A   Scattered Clouds
7:50 PM 10.4 °F -6.6 °F 1.4 °F 67% 30.10 in 10.0 mi South 16.1 mph 29.9 mph N/A   Scattered Clouds
8:10 PM 10.4 °F -5.4 °F 3.2 °F 73% 30.12 in 10.0 mi South 13.8 mph - N/A   Mostly Cloudy
8:30 PM 10.4 °F -7.2 °F 3.2 °F 73% 30.12 in 10.0 mi South 17.3 mph - N/A   Mostly Cloudy
8:50 PM 10.4 °F -8.2 °F 3.2 °F 73% 30.11 in 10.0 mi South 19.6 mph - N/A   Overcast
9:10 PM 12.2 °F -4.8 °F 3.2 °F 67% 30.09 in 10.0 mi South 17.3 mph 24.2 mph N/A   Overcast
9:30 PM 12.2 °F -4.3 °F 3.2 °F 67% 30.10 in 10.0 mi South 16.1 mph - N/A   Overcast
9:50 PM 12.2 °F -4.3 °F 5.0 °F 73% 30.08 in 10.0 mi South 16.1 mph - N/A   Overcast
10:10 PM 12.2 °F -4.3 °F 5.0 °F 73% 30.07 in 10.0 mi South 16.1 mph - N/A   Overcast
10:30 PM 12.2 °F -4.3 °F 6.8 °F 79% 30.05 in 10.0 mi South 16.1 mph - N/A   Overcast
10:50 PM 12.2 °F -3.7 °F 6.8 °F 79% 30.05 in 10.0 mi South 15.0 mph - N/A   Overcast
11:10 PM 12.2 °F -3.1 °F 6.8 °F 79% 30.04 in 10.0 mi South 13.8 mph - N/A   Overcast
11:30 PM 12.2 °F -3.1 °F 6.8 °F 79% 30.05 in 10.0 mi South 13.8 mph - N/A   Overcast
11:50 PM 10.4 °F -4.8 °F 5.0 °F 79% 30.03 in 10.0 mi South 12.7 mph - N/A   Scattered Clouds